sensor_id;sensor_type;location;lat;lon;timestamp;P1;durP1;ratioP1;P2;durP2;ratioP2
75316;SDS011;63913;51.492;10.368;2023-05-07T00:02:06;19.45;;;9.70;;
75316;SDS011;63913;51.492;10.368;2023-05-07T00:04:32;18.42;;;9.45;;
75316;SDS011;63913;51.492;10.368;2023-05-07T00:07:02;19.45;;;10.02;;
75316;SDS011;63913;51.492;10.368;2023-05-07T00:09:27;21.30;;;9.60;;
75316;SDS011;63913;51.492;10.368;2023-05-07T00:11:53;21.33;;;10.85;;
75316;SDS011;63913;51.492;10.368;2023-05-07T00:14:18;21.63;;;10.13;;
75316;SDS011;63913;51.492;10.368;2023-05-07T00:16:43;21.63;;;10.82;;
75316;SDS011;63913;51.492;10.368;2023-05-07T00:19:09;20.75;;;10.25;;
75316;SDS011;63913;51.492;10.368;2023-05-07T00:21:34;22.63;;;11.45;;
75316;SDS011;63913;51.492;10.368;2023-05-07T00:23:59;19.70;;;10.15;;
75316;SDS011;63913;51.492;10.368;2023-05-07T00:26:25;23.77;;;10.73;;
75316;SDS011;63913;51.492;10.368;2023-05-07T00:28:51;21.30;;;10.15;;
75316;SDS011;63913;51.492;10.368;2023-05-07T00:31:17;22.55;;;10.43;;
75316;SDS011;63913;51.492;10.368;2023-05-07T00:33:42;19.67;;;9.43;;
75316;SDS011;63913;51.492;10.368;2023-05-07T00:36:07;21.73;;;10.80;;
75316;SDS011;63913;51.492;10.368;2023-05-07T00:38:33;20.10;;;10.15;;
75316;SDS011;63913;51.492;10.368;2023-05-07T00:40:58;18.70;;;9.77;;
75316;SDS011;63913;51.492;10.368;2023-05-07T00:43:23;21.15;;;9.88;;
75316;SDS011;63913;51.492;10.368;2023-05-07T00:45:49;17.30;;;8.48;;
75316;SDS011;63913;51.492;10.368;2023-05-07T00:48:15;19.73;;;9.85;;
75316;SDS011;63913;51.492;10.368;2023-05-07T00:50:41;19.30;;;9.52;;
75316;SDS011;63913;51.492;10.368;2023-05-07T00:53:07;18.45;;;8.82;;
75316;SDS011;63913;51.492;10.368;2023-05-07T00:55:32;18.90;;;8.98;;
75316;SDS011;63913;51.492;10.368;2023-05-07T00:57:58;16.98;;;8.95;;
75316;SDS011;63913;51.492;10.368;2023-05-07T01:00:23;19.92;;;8.40;;
75316;SDS011;63913;51.492;10.368;2023-05-07T01:02:50;17.67;;;9.38;;
75316;SDS011;63913;51.492;10.368;2023-05-07T01:05:16;17.85;;;8.43;;
75316;SDS011;63913;51.492;10.368;2023-05-07T01:07:43;19.08;;;8.90;;
75316;SDS011;63913;51.492;10.368;2023-05-07T01:10:10;19.42;;;9.38;;
75316;SDS011;63913;51.492;10.368;2023-05-07T01:12:37;18.50;;;8.75;;
75316;SDS011;63913;51.492;10.368;2023-05-07T01:15:04;17.58;;;8.57;;
75316;SDS011;63913;51.492;10.368;2023-05-07T01:17:36;18.35;;;8.93;;
75316;SDS011;63913;51.492;10.368;2023-05-07T01:20:06;17.95;;;9.30;;
75316;SDS011;63913;51.492;10.368;2023-05-07T01:22:37;17.38;;;8.88;;
75316;SDS011;63913;51.492;10.368;2023-05-07T01:25:04;15.50;;;7.60;;
75316;SDS011;63913;51.492;10.368;2023-05-07T01:27:31;17.05;;;7.85;;
75316;SDS011;63913;51.492;10.368;2023-05-07T01:29:58;15.45;;;8.90;;
75316;SDS011;63913;51.492;10.368;2023-05-07T01:32:28;17.55;;;9.10;;
75316;SDS011;63913;51.492;10.368;2023-05-07T01:34:57;15.32;;;8.07;;
75316;SDS011;63913;51.492;10.368;2023-05-07T01:37:25;16.98;;;9.38;;
75316;SDS011;63913;51.492;10.368;2023-05-07T01:39:51;16.98;;;8.70;;
75316;SDS011;63913;51.492;10.368;2023-05-07T01:42:17;22.27;;;10.55;;
75316;SDS011;63913;51.492;10.368;2023-05-07T01:44:43;17.27;;;8.40;;
75316;SDS011;63913;51.492;10.368;2023-05-07T01:47:08;23.02;;;9.25;;
75316;SDS011;63913;51.492;10.368;2023-05-07T01:49:34;21.08;;;9.70;;
75316;SDS011;63913;51.492;10.368;2023-05-07T01:52:00;19.50;;;9.95;;
75316;SDS011;63913;51.492;10.368;2023-05-07T01:54:26;19.52;;;9.73;;
75316;SDS011;63913;51.492;10.368;2023-05-07T01:59:21;19.10;;;9.55;;
75316;SDS011;63913;51.492;10.368;2023-05-07T02:01:46;20.25;;;9.25;;
75316;SDS011;63913;51.492;10.368;2023-05-07T02:04:12;17.38;;;7.88;;
75316;SDS011;63913;51.492;10.368;2023-05-07T02:06:38;18.48;;;8.93;;
75316;SDS011;63913;51.492;10.368;2023-05-07T02:09:05;19.90;;;8.85;;
75316;SDS011;63913;51.492;10.368;2023-05-07T02:11:30;19.27;;;8.75;;
75316;SDS011;63913;51.492;10.368;2023-05-07T02:13:56;15.88;;;8.20;;
75316;SDS011;63913;51.492;10.368;2023-05-07T02:16:21;18.92;;;8.95;;
75316;SDS011;63913;51.492;10.368;2023-05-07T02:18:48;19.42;;;9.73;;
75316;SDS011;63913;51.492;10.368;2023-05-07T02:21:13;17.73;;;8.65;;
75316;SDS011;63913;51.492;10.368;2023-05-07T02:23:39;19.10;;;8.95;;
75316;SDS011;63913;51.492;10.368;2023-05-07T02:26:04;17.45;;;7.82;;
75316;SDS011;63913;51.492;10.368;2023-05-07T02:28:30;18.17;;;9.27;;
75316;SDS011;63913;51.492;10.368;2023-05-07T02:31:05;16.80;;;7.97;;
75316;SDS011;63913;51.492;10.368;2023-05-07T02:33:31;18.50;;;8.73;;
75316;SDS011;63913;51.492;10.368;2023-05-07T02:35:57;16.23;;;8.50;;
75316;SDS011;63913;51.492;10.368;2023-05-07T02:38:30;17.25;;;8.23;;
75316;SDS011;63913;51.492;10.368;2023-05-07T02:40:55;18.02;;;8.63;;
75316;SDS011;63913;51.492;10.368;2023-05-07T02:43:21;15.50;;;7.35;;
75316;SDS011;63913;51.492;10.368;2023-05-07T02:45:48;16.50;;;7.70;;
75316;SDS011;63913;51.492;10.368;2023-05-07T02:48:14;15.52;;;8.02;;
75316;SDS011;63913;51.492;10.368;2023-05-07T02:50:39;17.17;;;7.88;;
75316;SDS011;63913;51.492;10.368;2023-05-07T02:53:05;15.52;;;7.40;;
75316;SDS011;63913;51.492;10.368;2023-05-07T02:55:30;17.58;;;8.35;;
75316;SDS011;63913;51.492;10.368;2023-05-07T02:57:56;15.98;;;7.53;;
75316;SDS011;63913;51.492;10.368;2023-05-07T03:00:22;16.38;;;7.65;;
75316;SDS011;63913;51.492;10.368;2023-05-07T03:03:04;14.23;;;7.45;;
75316;SDS011;63913;51.492;10.368;2023-05-07T03:05:30;18.73;;;7.20;;
75316;SDS011;63913;51.492;10.368;2023-05-07T03:07:55;13.95;;;7.20;;
75316;SDS011;63913;51.492;10.368;2023-05-07T03:10:20;15.37;;;7.47;;
75316;SDS011;63913;51.492;10.368;2023-05-07T03:12:46;14.45;;;7.10;;
75316;SDS011;63913;51.492;10.368;2023-05-07T03:15:15;18.02;;;7.85;;
75316;SDS011;63913;51.492;10.368;2023-05-07T03:17:40;13.40;;;6.50;;
75316;SDS011;63913;51.492;10.368;2023-05-07T03:20:06;12.93;;;6.80;;
75316;SDS011;63913;51.492;10.368;2023-05-07T03:22:32;14.07;;;6.85;;
75316;SDS011;63913;51.492;10.368;2023-05-07T03:24:58;14.23;;;7.72;;
75316;SDS011;63913;51.492;10.368;2023-05-07T03:27:23;14.00;;;6.40;;
75316;SDS011;63913;51.492;10.368;2023-05-07T03:29:51;13.43;;;6.78;;
75316;SDS011;63913;51.492;10.368;2023-05-07T03:32:16;15.30;;;7.18;;
75316;SDS011;63913;51.492;10.368;2023-05-07T03:34:42;14.23;;;6.35;;
75316;SDS011;63913;51.492;10.368;2023-05-07T03:37:10;13.65;;;6.78;;
75316;SDS011;63913;51.492;10.368;2023-05-07T03:39:36;13.93;;;6.47;;
75316;SDS011;63913;51.492;10.368;2023-05-07T03:42:02;13.23;;;6.28;;
75316;SDS011;63913;51.492;10.368;2023-05-07T03:44:29;14.50;;;6.80;;
75316;SDS011;63913;51.492;10.368;2023-05-07T03:46:56;14.18;;;6.43;;
75316;SDS011;63913;51.492;10.368;2023-05-07T03:49:21;12.68;;;6.50;;
75316;SDS011;63913;51.492;10.368;2023-05-07T03:51:47;18.88;;;6.10;;
75316;SDS011;63913;51.492;10.368;2023-05-07T03:54:12;13.48;;;6.68;;
75316;SDS011;63913;51.492;10.368;2023-05-07T03:56:42;15.85;;;6.88;;
75316;SDS011;63913;51.492;10.368;2023-05-07T03:59:07;15.93;;;6.90;;
75316;SDS011;63913;51.492;10.368;2023-05-07T04:01:33;15.18;;;6.97;;
75316;SDS011;63913;51.492;10.368;2023-05-07T04:03:58;15.70;;;7.03;;
75316;SDS011;63913;51.492;10.368;2023-05-07T04:06:24;16.45;;;6.68;;
75316;SDS011;63913;51.492;10.368;2023-05-07T04:08:49;14.20;;;6.60;;
75316;SDS011;63913;51.492;10.368;2023-05-07T04:11:15;13.23;;;5.97;;
75316;SDS011;63913;51.492;10.368;2023-05-07T04:13:40;16.45;;;6.55;;
75316;SDS011;63913;51.492;10.368;2023-05-07T04:16:08;17.02;;;7.30;;
75316;SDS011;63913;51.492;10.368;2023-05-07T04:18:35;13.18;;;6.55;;
75316;SDS011;63913;51.492;10.368;2023-05-07T04:21:00;14.82;;;6.93;;
75316;SDS011;63913;51.492;10.368;2023-05-07T04:23:26;14.65;;;6.20;;
75316;SDS011;63913;51.492;10.368;2023-05-07T04:25:52;12.88;;;6.10;;
75316;SDS011;63913;51.492;10.368;2023-05-07T04:28:23;13.35;;;6.53;;
75316;SDS011;63913;51.492;10.368;2023-05-07T04:30:49;14.55;;;6.53;;
75316;SDS011;63913;51.492;10.368;2023-05-07T04:33:15;15.77;;;6.43;;
75316;SDS011;63913;51.492;10.368;2023-05-07T04:35:44;12.68;;;6.43;;
75316;SDS011;63913;51.492;10.368;2023-05-07T04:38:09;12.50;;;6.38;;
75316;SDS011;63913;51.492;10.368;2023-05-07T04:40:35;12.38;;;6.70;;
75316;SDS011;63913;51.492;10.368;2023-05-07T04:43:01;14.23;;;6.72;;
75316;SDS011;63913;51.492;10.368;2023-05-07T04:45:30;13.13;;;6.38;;
75316;SDS011;63913;51.492;10.368;2023-05-07T04:47:55;13.25;;;7.05;;
75316;SDS011;63913;51.492;10.368;2023-05-07T04:50:20;15.27;;;7.07;;
75316;SDS011;63913;51.492;10.368;2023-05-07T04:52:49;12.85;;;6.65;;
75316;SDS011;63913;51.492;10.368;2023-05-07T04:55:15;12.23;;;6.03;;
75316;SDS011;63913;51.492;10.368;2023-05-07T04:57:41;14.43;;;6.43;;
75316;SDS011;63913;51.492;10.368;2023-05-07T05:00:08;12.32;;;6.13;;
75316;SDS011;63913;51.492;10.368;2023-05-07T05:02:35;14.88;;;6.65;;
75316;SDS011;63913;51.492;10.368;2023-05-07T05:05:01;11.68;;;6.30;;
75316;SDS011;63913;51.492;10.368;2023-05-07T05:07:27;11.65;;;5.43;;
75316;SDS011;63913;51.492;10.368;2023-05-07T05:09:53;10.85;;;6.03;;
75316;SDS011;63913;51.492;10.368;2023-05-07T05:12:19;10.88;;;5.68;;
75316;SDS011;63913;51.492;10.368;2023-05-07T05:14:45;11.25;;;5.45;;
75316;SDS011;63913;51.492;10.368;2023-05-07T05:17:11;12.80;;;5.63;;
75316;SDS011;63913;51.492;10.368;2023-05-07T05:19:36;12.38;;;5.82;;
75316;SDS011;63913;51.492;10.368;2023-05-07T05:22:01;11.03;;;5.00;;
75316;SDS011;63913;51.492;10.368;2023-05-07T05:24:30;11.98;;;5.53;;
75316;SDS011;63913;51.492;10.368;2023-05-07T05:26:55;11.73;;;5.63;;
75316;SDS011;63913;51.492;10.368;2023-05-07T05:29:21;11.27;;;5.20;;
75316;SDS011;63913;51.492;10.368;2023-05-07T05:31:47;11.68;;;4.63;;
75316;SDS011;63913;51.492;10.368;2023-05-07T05:34:13;10.15;;;4.88;;
75316;SDS011;63913;51.492;10.368;2023-05-07T05:36:39;10.77;;;4.82;;
75316;SDS011;63913;51.492;10.368;2023-05-07T05:39:05;10.10;;;4.65;;
75316;SDS011;63913;51.492;10.368;2023-05-07T05:41:31;9.93;;;4.68;;
75316;SDS011;63913;51.492;10.368;2023-05-07T05:43:56;8.20;;;4.10;;
75316;SDS011;63913;51.492;10.368;2023-05-07T05:46:22;9.23;;;4.30;;
75316;SDS011;63913;51.492;10.368;2023-05-07T05:48:49;8.50;;;4.25;;
75316;SDS011;63913;51.492;10.368;2023-05-07T05:51:15;8.32;;;4.03;;
75316;SDS011;63913;51.492;10.368;2023-05-07T05:53:40;8.13;;;4.80;;
75316;SDS011;63913;51.492;10.368;2023-05-07T05:56:05;11.45;;;4.80;;
75316;SDS011;63913;51.492;10.368;2023-05-07T05:58:32;10.88;;;4.70;;
75316;SDS011;63913;51.492;10.368;2023-05-07T06:01:01;9.13;;;4.63;;
75316;SDS011;63913;51.492;10.368;2023-05-07T06:03:28;9.35;;;4.63;;
75316;SDS011;63913;51.492;10.368;2023-05-07T06:05:55;9.80;;;4.80;;
75316;SDS011;63913;51.492;10.368;2023-05-07T06:08:21;12.95;;;5.72;;
75316;SDS011;63913;51.492;10.368;2023-05-07T06:10:46;11.17;;;4.53;;
75316;SDS011;63913;51.492;10.368;2023-05-07T06:13:12;11.15;;;5.47;;
75316;SDS011;63913;51.492;10.368;2023-05-07T06:15:38;14.90;;;5.47;;
75316;SDS011;63913;51.492;10.368;2023-05-07T06:18:08;13.10;;;5.93;;
75316;SDS011;63913;51.492;10.368;2023-05-07T06:20:33;13.20;;;5.80;;
75316;SDS011;63913;51.492;10.368;2023-05-07T06:23:02;15.68;;;6.15;;
75316;SDS011;63913;51.492;10.368;2023-05-07T06:25:27;14.10;;;6.07;;
75316;SDS011;63913;51.492;10.368;2023-05-07T06:27:53;13.73;;;5.97;;
75316;SDS011;63913;51.492;10.368;2023-05-07T06:30:18;15.18;;;6.40;;
75316;SDS011;63913;51.492;10.368;2023-05-07T06:32:44;15.30;;;5.70;;
75316;SDS011;63913;51.492;10.368;2023-05-07T06:35:11;12.38;;;5.72;;
75316;SDS011;63913;51.492;10.368;2023-05-07T06:37:38;13.60;;;6.15;;
75316;SDS011;63913;51.492;10.368;2023-05-07T06:40:05;17.33;;;6.05;;
75316;SDS011;63913;51.492;10.368;2023-05-07T06:42:35;14.52;;;6.63;;
75316;SDS011;63913;51.492;10.368;2023-05-07T06:45:18;15.35;;;6.72;;
75316;SDS011;63913;51.492;10.368;2023-05-07T06:47:44;15.15;;;5.70;;
75316;SDS011;63913;51.492;10.368;2023-05-07T06:50:10;15.10;;;6.72;;
75316;SDS011;63913;51.492;10.368;2023-05-07T06:52:35;14.48;;;6.35;;
75316;SDS011;63913;51.492;10.368;2023-05-07T06:55:01;11.82;;;5.75;;
75316;SDS011;63913;51.492;10.368;2023-05-07T06:57:26;12.40;;;6.43;;
75316;SDS011;63913;51.492;10.368;2023-05-07T06:59:52;14.40;;;6.43;;
75316;SDS011;63913;51.492;10.368;2023-05-07T07:02:18;12.82;;;6.25;;
75316;SDS011;63913;51.492;10.368;2023-05-07T07:04:44;10.98;;;5.72;;
75316;SDS011;63913;51.492;10.368;2023-05-07T07:07:10;12.68;;;5.70;;
75316;SDS011;63913;51.492;10.368;2023-05-07T07:09:35;14.52;;;6.13;;
75316;SDS011;63913;51.492;10.368;2023-05-07T07:12:02;13.35;;;5.50;;
75316;SDS011;63913;51.492;10.368;2023-05-07T07:14:29;12.05;;;6.07;;
75316;SDS011;63913;51.492;10.368;2023-05-07T07:16:54;12.60;;;5.50;;
75316;SDS011;63913;51.492;10.368;2023-05-07T07:19:21;15.23;;;6.30;;
75316;SDS011;63913;51.492;10.368;2023-05-07T07:21:49;12.75;;;5.70;;
75316;SDS011;63913;51.492;10.368;2023-05-07T07:24:15;11.82;;;5.85;;
75316;SDS011;63913;51.492;10.368;2023-05-07T07:26:45;12.85;;;5.78;;
75316;SDS011;63913;51.492;10.368;2023-05-07T07:29:11;12.88;;;5.15;;
75316;SDS011;63913;51.492;10.368;2023-05-07T07:31:37;10.95;;;5.20;;
75316;SDS011;63913;51.492;10.368;2023-05-07T07:34:03;11.85;;;5.88;;
75316;SDS011;63913;51.492;10.368;2023-05-07T07:36:28;13.80;;;5.93;;
75316;SDS011;63913;51.492;10.368;2023-05-07T07:38:54;12.02;;;6.38;;
75316;SDS011;63913;51.492;10.368;2023-05-07T07:41:19;10.68;;;5.72;;
75316;SDS011;63913;51.492;10.368;2023-05-07T07:43:46;12.52;;;5.82;;
75316;SDS011;63913;51.492;10.368;2023-05-07T07:46:15;14.20;;;6.30;;
75316;SDS011;63913;51.492;10.368;2023-05-07T07:48:41;11.82;;;6.22;;
75316;SDS011;63913;51.492;10.368;2023-05-07T07:51:07;12.68;;;5.88;;
75316;SDS011;63913;51.492;10.368;2023-05-07T07:53:33;11.48;;;6.25;;
75316;SDS011;63913;51.492;10.368;2023-05-07T07:55:59;10.38;;;5.88;;
75316;SDS011;63913;51.492;10.368;2023-05-07T07:58:26;11.65;;;5.75;;
75316;SDS011;63913;51.492;10.368;2023-05-07T08:00:52;12.15;;;6.18;;
75316;SDS011;63913;51.492;10.368;2023-05-07T08:03:21;11.00;;;5.32;;
75316;SDS011;63913;51.492;10.368;2023-05-07T08:05:50;11.68;;;5.63;;
75316;SDS011;63913;51.492;10.368;2023-05-07T08:08:16;14.23;;;6.18;;
75316;SDS011;63913;51.492;10.368;2023-05-07T08:10:42;12.43;;;6.03;;
75316;SDS011;63913;51.492;10.368;2023-05-07T08:13:15;12.98;;;6.38;;
75316;SDS011;63913;51.492;10.368;2023-05-07T08:15:42;11.55;;;5.70;;
75316;SDS011;63913;51.492;10.368;2023-05-07T08:18:07;14.68;;;6.07;;
75316;SDS011;63913;51.492;10.368;2023-05-07T08:20:33;13.15;;;6.53;;
75316;SDS011;63913;51.492;10.368;2023-05-07T08:23:02;12.88;;;5.93;;
75316;SDS011;63913;51.492;10.368;2023-05-07T08:25:28;11.15;;;5.63;;
75316;SDS011;63913;51.492;10.368;2023-05-07T08:27:53;13.65;;;6.20;;
75316;SDS011;63913;51.492;10.368;2023-05-07T08:30:18;13.63;;;6.90;;
75316;SDS011;63913;51.492;10.368;2023-05-07T08:32:44;13.02;;;6.88;;
75316;SDS011;63913;51.492;10.368;2023-05-07T08:35:09;13.85;;;6.55;;
75316;SDS011;63913;51.492;10.368;2023-05-07T08:37:35;13.77;;;6.93;;
75316;SDS011;63913;51.492;10.368;2023-05-07T08:40:00;14.85;;;6.85;;
75316;SDS011;63913;51.492;10.368;2023-05-07T08:42:30;14.57;;;7.15;;
75316;SDS011;63913;51.492;10.368;2023-05-07T08:44:57;14.32;;;7.43;;
75316;SDS011;63913;51.492;10.368;2023-05-07T08:47:25;13.45;;;6.65;;
75316;SDS011;63913;51.492;10.368;2023-05-07T08:49:59;14.73;;;6.97;;
75316;SDS011;63913;51.492;10.368;2023-05-07T08:52:26;14.43;;;7.45;;
75316;SDS011;63913;51.492;10.368;2023-05-07T08:54:52;17.80;;;8.07;;
75316;SDS011;63913;51.492;10.368;2023-05-07T08:57:17;16.40;;;8.27;;
75316;SDS011;63913;51.492;10.368;2023-05-07T08:59:45;13.98;;;7.15;;
75316;SDS011;63913;51.492;10.368;2023-05-07T09:02:10;15.90;;;7.75;;
75316;SDS011;63913;51.492;10.368;2023-05-07T09:04:36;16.95;;;8.07;;
75316;SDS011;63913;51.492;10.368;2023-05-07T09:07:04;16.33;;;7.88;;
75316;SDS011;63913;51.492;10.368;2023-05-07T09:09:33;14.15;;;7.45;;
75316;SDS011;63913;51.492;10.368;2023-05-07T09:11:59;14.65;;;7.22;;
75316;SDS011;63913;51.492;10.368;2023-05-07T09:14:27;14.55;;;6.80;;
75316;SDS011;63913;51.492;10.368;2023-05-07T09:16:53;14.25;;;7.68;;
75316;SDS011;63913;51.492;10.368;2023-05-07T09:19:23;13.23;;;7.53;;
75316;SDS011;63913;51.492;10.368;2023-05-07T09:21:49;15.18;;;7.47;;
75316;SDS011;63913;51.492;10.368;2023-05-07T09:24:15;14.60;;;7.65;;
75316;SDS011;63913;51.492;10.368;2023-05-07T09:26:42;15.95;;;7.88;;
75316;SDS011;63913;51.492;10.368;2023-05-07T09:31:38;17.00;;;7.82;;
75316;SDS011;63913;51.492;10.368;2023-05-07T09:34:06;16.10;;;8.15;;
75316;SDS011;63913;51.492;10.368;2023-05-07T09:36:34;16.05;;;7.80;;
75316;SDS011;63913;51.492;10.368;2023-05-07T09:39:01;17.25;;;8.40;;
75316;SDS011;63913;51.492;10.368;2023-05-07T09:41:26;14.98;;;7.78;;
75316;SDS011;63913;51.492;10.368;2023-05-07T09:43:59;17.42;;;7.85;;
75316;SDS011;63913;51.492;10.368;2023-05-07T09:46:30;15.98;;;7.75;;
75316;SDS011;63913;51.492;10.368;2023-05-07T09:48:58;14.70;;;8.00;;
75316;SDS011;63913;51.492;10.368;2023-05-07T09:51:35;15.07;;;8.32;;
75316;SDS011;63913;51.492;10.368;2023-05-07T09:54:24;15.35;;;7.60;;
75316;SDS011;63913;51.492;10.368;2023-05-07T09:56:53;16.40;;;8.73;;
75316;SDS011;63913;51.492;10.368;2023-05-07T09:59:22;16.45;;;8.75;;
75316;SDS011;63913;51.492;10.368;2023-05-07T10:01:48;16.15;;;7.88;;
75316;SDS011;63913;51.492;10.368;2023-05-07T10:04:14;14.63;;;8.20;;
75316;SDS011;63913;51.492;10.368;2023-05-07T10:06:42;16.58;;;8.35;;
75316;SDS011;63913;51.492;10.368;2023-05-07T10:09:10;12.43;;;7.15;;
75316;SDS011;63913;51.492;10.368;2023-05-07T10:11:36;14.25;;;8.50;;
75316;SDS011;63913;51.492;10.368;2023-05-07T10:14:03;15.90;;;8.43;;
75316;SDS011;63913;51.492;10.368;2023-05-07T10:16:31;16.88;;;9.48;;
75316;SDS011;63913;51.492;10.368;2023-05-07T10:19:04;17.10;;;8.00;;
75316;SDS011;63913;51.492;10.368;2023-05-07T10:24:15;19.95;;;8.70;;
75316;SDS011;63913;51.492;10.368;2023-05-07T10:26:45;14.77;;;8.20;;
75316;SDS011;63913;51.492;10.368;2023-05-07T10:34:39;18.20;;;7.90;;
75316;SDS011;63913;51.492;10.368;2023-05-07T10:37:09;16.65;;;9.05;;
75316;SDS011;63913;51.492;10.368;2023-05-07T10:39:35;19.40;;;9.60;;
75316;SDS011;63913;51.492;10.368;2023-05-07T10:42:12;20.80;;;8.60;;
75316;SDS011;63913;51.492;10.368;2023-05-07T10:44:43;15.65;;;7.75;;
75316;SDS011;63913;51.492;10.368;2023-05-07T10:47:15;14.30;;;8.20;;
75316;SDS011;63913;51.492;10.368;2023-05-07T10:52:23;15.18;;;8.30;;
75316;SDS011;63913;51.492;10.368;2023-05-07T10:57:40;17.25;;;9.18;;
75316;SDS011;63913;51.492;10.368;2023-05-07T11:00:40;14.35;;;8.68;;
75316;SDS011;63913;51.492;10.368;2023-05-07T11:03:04;17.02;;;10.15;;
75316;SDS011;63913;51.492;10.368;2023-05-07T11:05:38;18.17;;;9.30;;
75316;SDS011;63913;51.492;10.368;2023-05-07T11:08:18;16.02;;;8.73;;
75316;SDS011;63913;51.492;10.368;2023-05-07T11:11:04;16.25;;;8.93;;
75316;SDS011;63913;51.492;10.368;2023-05-07T11:13:41;15.27;;;8.32;;
75316;SDS011;63913;51.492;10.368;2023-05-07T11:16:20;15.07;;;8.07;;
75316;SDS011;63913;51.492;10.368;2023-05-07T11:18:49;17.17;;;8.85;;
75316;SDS011;63913;51.492;10.368;2023-05-07T11:24:29;16.90;;;9.80;;
75316;SDS011;63913;51.492;10.368;2023-05-07T11:27:05;15.57;;;7.80;;
75316;SDS011;63913;51.492;10.368;2023-05-07T11:29:31;12.98;;;7.82;;
75316;SDS011;63913;51.492;10.368;2023-05-07T11:32:05;14.45;;;7.68;;
75316;SDS011;63913;51.492;10.368;2023-05-07T11:34:37;13.93;;;7.43;;
75316;SDS011;63913;51.492;10.368;2023-05-07T11:37:03;13.30;;;7.93;;
75316;SDS011;63913;51.492;10.368;2023-05-07T11:39:49;13.15;;;7.78;;
75316;SDS011;63913;51.492;10.368;2023-05-07T11:44:57;14.38;;;7.85;;
75316;SDS011;63913;51.492;10.368;2023-05-07T11:47:23;13.60;;;7.22;;
75316;SDS011;63913;51.492;10.368;2023-05-07T11:49:49;13.60;;;7.72;;
75316;SDS011;63913;51.492;10.368;2023-05-07T11:52:16;13.35;;;7.90;;
75316;SDS011;63913;51.492;10.368;2023-05-07T11:54:53;14.35;;;8.10;;
75316;SDS011;63913;51.492;10.368;2023-05-07T11:57:20;14.40;;;8.25;;
75316;SDS011;63913;51.492;10.368;2023-05-07T11:59:46;13.32;;;7.75;;
75316;SDS011;63913;51.492;10.368;2023-05-07T12:02:13;14.80;;;8.63;;
75316;SDS011;63913;51.492;10.368;2023-05-07T12:04:40;15.00;;;8.63;;
75316;SDS011;63913;51.492;10.368;2023-05-07T12:07:10;13.60;;;8.10;;
75316;SDS011;63913;51.492;10.368;2023-05-07T12:09:40;12.95;;;7.88;;
75316;SDS011;63913;51.492;10.368;2023-05-07T12:12:06;13.18;;;7.53;;
75316;SDS011;63913;51.492;10.368;2023-05-07T12:14:31;14.40;;;7.93;;
75316;SDS011;63913;51.492;10.368;2023-05-07T12:16:57;14.57;;;7.82;;
75316;SDS011;63913;51.492;10.368;2023-05-07T12:19:27;13.00;;;7.95;;
75316;SDS011;63913;51.492;10.368;2023-05-07T12:21:54;11.23;;;7.60;;
75316;SDS011;63913;51.492;10.368;2023-05-07T12:24:19;14.02;;;7.50;;
75316;SDS011;63913;51.492;10.368;2023-05-07T12:26:45;10.50;;;6.65;;
75316;SDS011;63913;51.492;10.368;2023-05-07T12:29:11;13.25;;;7.00;;
75316;SDS011;63913;51.492;10.368;2023-05-07T12:31:36;12.10;;;7.60;;
75316;SDS011;63913;51.492;10.368;2023-05-07T12:34:02;13.00;;;7.55;;
75316;SDS011;63913;51.492;10.368;2023-05-07T12:36:35;12.85;;;7.65;;
75316;SDS011;63913;51.492;10.368;2023-05-07T12:39:03;10.50;;;6.63;;
75316;SDS011;63913;51.492;10.368;2023-05-07T12:41:30;12.32;;;6.93;;
75316;SDS011;63913;51.492;10.368;2023-05-07T12:43:56;11.43;;;7.03;;
75316;SDS011;63913;51.492;10.368;2023-05-07T12:46:22;14.27;;;7.50;;
75316;SDS011;63913;51.492;10.368;2023-05-07T12:48:48;11.30;;;6.82;;
75316;SDS011;63913;51.492;10.368;2023-05-07T12:51:14;13.20;;;7.25;;
75316;SDS011;63913;51.492;10.368;2023-05-07T12:53:40;14.15;;;8.13;;
75316;SDS011;63913;51.492;10.368;2023-05-07T12:56:09;12.73;;;7.97;;
75316;SDS011;63913;51.492;10.368;2023-05-07T12:58:35;12.15;;;7.25;;
75316;SDS011;63913;51.492;10.368;2023-05-07T13:01:04;10.85;;;7.20;;
75316;SDS011;63913;51.492;10.368;2023-05-07T13:03:32;10.07;;;6.82;;
75316;SDS011;63913;51.492;10.368;2023-05-07T13:05:59;11.75;;;6.78;;
75316;SDS011;63913;51.492;10.368;2023-05-07T13:08:33;11.02;;;6.82;;
75316;SDS011;63913;51.492;10.368;2023-05-07T13:11:02;10.30;;;6.85;;
75316;SDS011;63913;51.492;10.368;2023-05-07T13:13:31;12.10;;;7.07;;
75316;SDS011;63913;51.492;10.368;2023-05-07T13:15:57;10.18;;;6.93;;
75316;SDS011;63913;51.492;10.368;2023-05-07T13:18:24;11.05;;;7.70;;
75316;SDS011;63913;51.492;10.368;2023-05-07T13:20:50;10.77;;;7.20;;
75316;SDS011;63913;51.492;10.368;2023-05-07T13:23:16;10.70;;;6.75;;
75316;SDS011;63913;51.492;10.368;2023-05-07T13:25:41;10.00;;;6.75;;
75316;SDS011;63913;51.492;10.368;2023-05-07T13:28:06;10.70;;;7.10;;
75316;SDS011;63913;51.492;10.368;2023-05-07T13:30:32;9.25;;;6.05;;
75316;SDS011;63913;51.492;10.368;2023-05-07T13:32:57;8.48;;;6.22;;
75316;SDS011;63913;51.492;10.368;2023-05-07T13:35:23;7.85;;;5.88;;
75316;SDS011;63913;51.492;10.368;2023-05-07T13:37:48;8.57;;;6.10;;
75316;SDS011;63913;51.492;10.368;2023-05-07T13:40:14;9.48;;;6.45;;
75316;SDS011;63913;51.492;10.368;2023-05-07T13:42:40;7.57;;;5.93;;
75316;SDS011;63913;51.492;10.368;2023-05-07T13:45:06;8.07;;;6.10;;
75316;SDS011;63913;51.492;10.368;2023-05-07T13:47:32;6.82;;;5.50;;
75316;SDS011;63913;51.492;10.368;2023-05-07T13:49:58;11.25;;;6.65;;
75316;SDS011;63913;51.492;10.368;2023-05-07T13:52:23;7.97;;;5.70;;
75316;SDS011;63913;51.492;10.368;2023-05-07T13:54:48;8.07;;;5.72;;
75316;SDS011;63913;51.492;10.368;2023-05-07T13:57:14;7.90;;;5.93;;
75316;SDS011;63913;51.492;10.368;2023-05-07T13:59:40;7.20;;;5.55;;
75316;SDS011;63913;51.492;10.368;2023-05-07T14:02:05;6.47;;;5.22;;
75316;SDS011;63913;51.492;10.368;2023-05-07T14:04:31;6.38;;;5.05;;
75316;SDS011;63913;51.492;10.368;2023-05-07T14:06:56;8.10;;;5.67;;
75316;SDS011;63913;51.492;10.368;2023-05-07T14:09:21;6.57;;;5.03;;
75316;SDS011;63913;51.492;10.368;2023-05-07T14:11:47;5.68;;;4.82;;
75316;SDS011;63913;51.492;10.368;2023-05-07T14:14:16;6.63;;;5.20;;
75316;SDS011;63913;51.492;10.368;2023-05-07T14:16:42;7.20;;;5.20;;
75316;SDS011;63913;51.492;10.368;2023-05-07T14:19:07;5.65;;;4.43;;
75316;SDS011;63913;51.492;10.368;2023-05-07T14:21:32;7.03;;;5.32;;
75316;SDS011;63913;51.492;10.368;2023-05-07T14:23:58;7.20;;;5.60;;
75316;SDS011;63913;51.492;10.368;2023-05-07T14:26:24;9.77;;;5.65;;
75316;SDS011;63913;51.492;10.368;2023-05-07T14:28:52;7.20;;;4.63;;
75316;SDS011;63913;51.492;10.368;2023-05-07T14:31:19;5.63;;;4.50;;
75316;SDS011;63913;51.492;10.368;2023-05-07T14:33:45;6.90;;;5.07;;
75316;SDS011;63913;51.492;10.368;2023-05-07T14:36:11;6.70;;;5.18;;
75316;SDS011;63913;51.492;10.368;2023-05-07T14:38:37;6.90;;;5.22;;
75316;SDS011;63913;51.492;10.368;2023-05-07T14:41:02;7.70;;;5.50;;
75316;SDS011;63913;51.492;10.368;2023-05-07T14:43:27;8.10;;;5.60;;
75316;SDS011;63913;51.492;10.368;2023-05-07T14:45:53;6.57;;;5.13;;
75316;SDS011;63913;51.492;10.368;2023-05-07T14:48:18;7.43;;;5.57;;